LHA8857 DNMM-LEMI
Flight info
| Callsign | LHA8857 |
|---|---|
| Flight time | 4h 16m |
| Altitude | 36000 |
| Route | ILKEL UR981 NY/N0489F370 UM608 ROFER/N0484F390 UM608 BAY/N0474F380 UA604 MOS UA34 HAMRA DCT PALOS PALO1T |
| Aircraft | B77W/H-SDE1E2FGIJ1RWYZ/S |
Departure
| Time | 2026-05-06 08:02 |
|---|---|
| Airport | Murtala Muhammed International Airport (DNMM) |
Arrival
| Time | 2026-05-06 12:19 |
|---|---|
| Airport | Region of Murcia International Airport (LEMI) |
| Time | Latitude | Longitude | Altitude | Speed | Heading |
|---|---|---|---|---|---|
| 2026-05-06 07:45 | 6.57964 | 3.32178 | 94 ft | 4 kts | 112° |
| 2026-05-06 07:45 | 6.57967 | 3.32171 | 96 ft | 0 kts | 112° |
| 2026-05-06 07:45 | 6.57959 | 3.32191 | 99 ft | 0 kts | 112° |
| 2026-05-06 07:53 | 6.57959 | 3.32190 | 96 ft | 0 kts | 112° |
| 2026-05-06 07:53 | 6.57968 | 3.32170 | 92 ft | 4 kts | 113° |
| 2026-05-06 07:54 | 6.57978 | 3.32147 | 93 ft | 3 kts | 112° |
| 2026-05-06 07:54 | 6.57981 | 3.32125 | 93 ft | 6 kts | 53° |
| 2026-05-06 07:54 | 6.57961 | 3.32111 | 92 ft | 9 kts | 20° |
| 2026-05-06 07:54 | 6.57950 | 3.32107 | 92 ft | 4 kts | 20° |
| 2026-05-06 07:56 | 6.58024 | 3.32136 | 92 ft | 14 kts | 22° |
| 2026-05-06 07:57 | 6.58107 | 3.32169 | 94 ft | 12 kts | 21° |
| 2026-05-06 07:57 | 6.58184 | 3.32199 | 92 ft | 12 kts | 19° |
| 2026-05-06 07:57 | 6.58255 | 3.32177 | 96 ft | 12 kts | 304° |
| 2026-05-06 07:57 | 6.58270 | 3.32093 | 93 ft | 14 kts | 262° |
| 2026-05-06 07:58 | 6.58230 | 3.31983 | 86 ft | 19 kts | 247° |
| 2026-05-06 07:58 | 6.58176 | 3.31856 | 71 ft | 21 kts | 247° |
| 2026-05-06 07:58 | 6.58117 | 3.31717 | 62 ft | 22 kts | 246° |
| 2026-05-06 07:58 | 6.58082 | 3.31636 | 58 ft | 15 kts | 246° |
| 2026-05-06 07:59 | 6.58073 | 3.31555 | 56 ft | 11 kts | 298° |
| 2026-05-06 07:59 | 6.58142 | 3.31525 | 60 ft | 11 kts | 358° |
| 2026-05-06 07:59 | 6.58224 | 3.31524 | 62 ft | 13 kts | 359° |
| 2026-05-06 07:59 | 6.58329 | 3.31523 | 63 ft | 17 kts | 359° |
| 2026-05-06 08:00 | 6.58454 | 3.31522 | 73 ft | 18 kts | 359° |
| 2026-05-06 08:00 | 6.58580 | 3.31520 | 68 ft | 18 kts | 359° |
| 2026-05-06 08:00 | 6.58700 | 3.31519 | 70 ft | 15 kts | 359° |
| 2026-05-06 08:00 | 6.58794 | 3.31500 | 66 ft | 14 kts | 317° |
| 2026-05-06 08:01 | 6.58810 | 3.31409 | 68 ft | 14 kts | 262° |
| 2026-05-06 08:01 | 6.58759 | 3.31333 | 71 ft | 14 kts | 215° |
| 2026-05-06 08:01 | 6.58668 | 3.31315 | 74 ft | 14 kts | 179° |
| 2026-05-06 08:01 | 6.58477 | 3.31318 | 68 ft | 51 kts | 179° |
| 2026-05-06 08:02 | 6.57837 | 3.31326 | 59 ft | 131 kts | 179° |
| 2026-05-06 08:02 | 6.56700 | 3.31338 | 99 ft | 189 kts | 180° |
| 2026-05-06 08:02 | 6.55336 | 3.31361 | 666 ft | 201 kts | 179° |
| 2026-05-06 08:02 | 6.53963 | 3.31422 | 1511 ft | 192 kts | 181° |
| 2026-05-06 08:03 | 6.52685 | 3.31091 | 2122 ft | 196 kts | 215° |
| 2026-05-06 08:03 | 6.51841 | 3.30001 | 2653 ft | 198 kts | 245° |
| 2026-05-06 08:03 | 6.51531 | 3.28665 | 3345 ft | 199 kts | 268° |
| 2026-05-06 08:03 | 6.51563 | 3.27267 | 3827 ft | 205 kts | 266° |
| 2026-05-06 08:04 | 6.51514 | 3.25810 | 4331 ft | 211 kts | 268° |
| 2026-05-06 08:04 | 6.51661 | 3.24337 | 4802 ft | 217 kts | 294° |
| 2026-05-06 08:04 | 6.52657 | 3.23239 | 5326 ft | 216 kts | 333° |
| 2026-05-06 08:04 | 6.54099 | 3.22934 | 5853 ft | 213 kts | 0° |
| 2026-05-06 08:05 | 6.55589 | 3.22931 | 6388 ft | 215 kts | 1° |
| 2026-05-06 08:05 | 6.57071 | 3.22923 | 6902 ft | 217 kts | 1° |
| 2026-05-06 08:05 | 6.58616 | 3.22909 | 7288 ft | 228 kts | 1° |
| 2026-05-06 08:05 | 6.60240 | 3.22886 | 7674 ft | 239 kts | 2° |
| 2026-05-06 08:06 | 6.61947 | 3.22859 | 8066 ft | 252 kts | 2° |
| 2026-05-06 08:06 | 6.63764 | 3.22847 | 8353 ft | 271 kts | 3° |
| 2026-05-06 08:06 | 6.65705 | 3.22827 | 8766 ft | 284 kts | 2° |
| 2026-05-06 08:06 | 6.67700 | 3.22789 | 9434 ft | 289 kts | 3° |
| 2026-05-06 08:07 | 6.69714 | 3.22755 | 10191 ft | 290 kts | 4° |
| 2026-05-06 08:07 | 6.71776 | 3.22724 | 10585 ft | 308 kts | 4° |
| 2026-05-06 08:07 | 6.73992 | 3.22694 | 10746 ft | 332 kts | 3° |
| 2026-05-06 08:07 | 6.76393 | 3.22659 | 10924 ft | 356 kts | 3° |
| 2026-05-06 08:08 | 6.78940 | 3.22619 | 11325 ft | 371 kts | 2° |
| 2026-05-06 08:08 | 6.81566 | 3.22533 | 11940 ft | 382 kts | 0° |
| 2026-05-06 08:08 | 6.84232 | 3.22342 | 12770 ft | 387 kts | 359° |
| 2026-05-06 08:08 | 6.86929 | 3.22111 | 13597 ft | 392 kts | 358° |
| 2026-05-06 08:09 | 6.89664 | 3.21869 | 14308 ft | 397 kts | 358° |
| 2026-05-06 08:09 | 6.92436 | 3.21628 | 15022 ft | 402 kts | 358° |
| 2026-05-06 08:09 | 6.95240 | 3.21391 | 15722 ft | 407 kts | 358° |
| 2026-05-06 08:09 | 6.98082 | 3.21156 | 16220 ft | 413 kts | 358° |
| 2026-05-06 08:10 | 7.00954 | 3.20921 | 16962 ft | 417 kts | 358° |
| 2026-05-06 08:10 | 7.03853 | 3.20688 | 17751 ft | 419 kts | 357° |
| 2026-05-06 08:10 | 7.06777 | 3.20453 | 18409 ft | 424 kts | 357° |
| 2026-05-06 08:10 | 7.09736 | 3.20217 | 18992 ft | 429 kts | 357° |
| 2026-05-06 08:11 | 7.12726 | 3.19979 | 19598 ft | 433 kts | 357° |
| 2026-05-06 08:11 | 7.15738 | 3.19739 | 20193 ft | 436 kts | 357° |
| 2026-05-06 08:11 | 7.18778 | 3.19496 | 20789 ft | 440 kts | 357° |
| 2026-05-06 08:11 | 7.21828 | 3.19252 | 21365 ft | 444 kts | 357° |
| 2026-05-06 08:12 | 7.24850 | 3.19010 | 21915 ft | 448 kts | 357° |
| 2026-05-06 08:12 | 7.27965 | 3.18762 | 22467 ft | 452 kts | 357° |
| 2026-05-06 08:12 | 7.31150 | 3.18507 | 23020 ft | 456 kts | 357° |
| 2026-05-06 08:12 | 7.34319 | 3.18254 | 23550 ft | 460 kts | 357° |
| 2026-05-06 08:13 | 7.37514 | 3.17999 | 23993 ft | 463 kts | 357° |
| 2026-05-06 08:13 | 7.40729 | 3.17742 | 24456 ft | 466 kts | 357° |
| 2026-05-06 08:13 | 7.43961 | 3.17483 | 24921 ft | 468 kts | 357° |
| 2026-05-06 08:13 | 7.47209 | 3.17224 | 25381 ft | 471 kts | 357° |
| 2026-05-06 08:14 | 7.50475 | 3.16962 | 25803 ft | 473 kts | 357° |
| 2026-05-06 08:14 | 7.53762 | 3.16699 | 26233 ft | 476 kts | 357° |
| 2026-05-06 08:14 | 7.57111 | 3.16431 | 26659 ft | 479 kts | 357° |
| 2026-05-06 08:14 | 7.60432 | 3.16165 | 27110 ft | 480 kts | 357° |
| 2026-05-06 08:15 | 7.63759 | 3.15899 | 27608 ft | 481 kts | 357° |
| 2026-05-06 08:15 | 7.67094 | 3.15632 | 28031 ft | 483 kts | 358° |
| 2026-05-06 08:15 | 7.70448 | 3.15365 | 28415 ft | 486 kts | 358° |
| 2026-05-06 08:15 | 7.73821 | 3.15095 | 28774 ft | 489 kts | 358° |
| 2026-05-06 08:16 | 7.77211 | 3.14815 | 29139 ft | 491 kts | 356° |
| 2026-05-06 08:16 | 7.80602 | 3.14354 | 29492 ft | 494 kts | 353° |
| 2026-05-06 08:16 | 7.83996 | 3.13790 | 29827 ft | 496 kts | 353° |
| 2026-05-06 08:16 | 7.87435 | 3.13201 | 30244 ft | 495 kts | 353° |
| 2026-05-06 08:17 | 7.90815 | 3.12619 | 30691 ft | 493 kts | 353° |
| 2026-05-06 08:17 | 7.94187 | 3.12044 | 31071 ft | 493 kts | 353° |
| 2026-05-06 08:17 | 7.97564 | 3.11476 | 31384 ft | 494 kts | 353° |
| 2026-05-06 08:17 | 8.00971 | 3.10909 | 31525 ft | 500 kts | 353° |
| 2026-05-06 08:18 | 8.04444 | 3.10333 | 31848 ft | 500 kts | 353° |
| 2026-05-06 08:18 | 8.07865 | 3.09767 | 32279 ft | 498 kts | 353° |
| 2026-05-06 08:18 | 8.11271 | 3.09203 | 32741 ft | 496 kts | 353° |
| 2026-05-06 08:18 | 8.14664 | 3.08640 | 33174 ft | 495 kts | 353° |
| 2026-05-06 08:19 | 8.18052 | 3.08078 | 33569 ft | 494 kts | 353° |
| 2026-05-06 08:19 | 8.21441 | 3.07517 | 33911 ft | 494 kts | 353° |
| 2026-05-06 08:19 | 8.24827 | 3.06955 | 34253 ft | 494 kts | 353° |
| 2026-05-06 08:19 | 8.28250 | 3.06387 | 34612 ft | 492 kts | 352° |
| 2026-05-06 08:20 | 8.31615 | 3.05828 | 34978 ft | 490 kts | 352° |
| 2026-05-06 08:20 | 8.35023 | 3.05262 | 35311 ft | 489 kts | 352° |
| 2026-05-06 08:20 | 8.38381 | 3.04705 | 35638 ft | 488 kts | 352° |
| 2026-05-06 08:20 | 8.41717 | 3.04151 | 35889 ft | 489 kts | 352° |
| 2026-05-06 08:21 | 8.48473 | 3.03030 | 35950 ft | 492 kts | 352° |
| 2026-05-06 08:21 | 8.55188 | 3.01913 | 35948 ft | 486 kts | 352° |
| 2026-05-06 08:22 | 8.61857 | 3.00805 | 35952 ft | 484 kts | 352° |
| 2026-05-06 08:22 | 8.68500 | 2.99699 | 35950 ft | 484 kts | 352° |
| 2026-05-06 08:23 | 8.75143 | 2.98587 | 35958 ft | 484 kts | 352° |
| 2026-05-06 08:23 | 8.81807 | 2.97470 | 35949 ft | 485 kts | 352° |
| 2026-05-06 08:24 | 8.88428 | 2.96361 | 35953 ft | 486 kts | 352° |
| 2026-05-06 08:24 | 8.95108 | 2.95243 | 35950 ft | 487 kts | 352° |
| 2026-05-06 08:25 | 9.01796 | 2.94122 | 35948 ft | 488 kts | 352° |
| 2026-05-06 08:25 | 9.08490 | 2.92989 | 35950 ft | 488 kts | 351° |
| 2026-05-06 08:26 | 9.15183 | 2.91726 | 35946 ft | 489 kts | 351° |
| 2026-05-06 08:26 | 9.21866 | 2.90432 | 35945 ft | 489 kts | 351° |
| 2026-05-06 08:27 | 9.28553 | 2.89155 | 35936 ft | 489 kts | 351° |
| 2026-05-06 08:27 | 9.35253 | 2.87885 | 35938 ft | 489 kts | 351° |
| 2026-05-06 08:28 | 9.41941 | 2.86617 | 35936 ft | 489 kts | 351° |
| 2026-05-06 08:28 | 9.48630 | 2.85355 | 35935 ft | 489 kts | 351° |
| 2026-05-06 08:29 | 9.55357 | 2.84291 | 35939 ft | 490 kts | 353° |
| 2026-05-06 08:29 | 9.62105 | 2.83317 | 35935 ft | 490 kts | 353° |
| 2026-05-06 08:30 | 9.68872 | 2.82319 | 35932 ft | 491 kts | 353° |
| 2026-05-06 08:30 | 9.75632 | 2.81297 | 35931 ft | 492 kts | 352° |
| 2026-05-06 08:31 | 9.82414 | 2.80263 | 35925 ft | 492 kts | 352° |
| 2026-05-06 08:31 | 9.89094 | 2.79244 | 35927 ft | 491 kts | 352° |
| 2026-05-06 08:32 | 9.95832 | 2.78217 | 35924 ft | 490 kts | 352° |
| 2026-05-06 08:32 | 10.02605 | 2.77185 | 35918 ft | 489 kts | 352° |
| 2026-05-06 08:33 | 10.09316 | 2.76163 | 35919 ft | 489 kts | 352° |
| 2026-05-06 08:33 | 10.16024 | 2.75140 | 35916 ft | 488 kts | 352° |
| 2026-05-06 08:34 | 10.26073 | 2.73608 | 35917 ft | 488 kts | 351° |
| 2026-05-06 08:35 | 10.32811 | 2.72579 | 35913 ft | 487 kts | 351° |
| 2026-05-06 08:35 | 10.39505 | 2.71557 | 35908 ft | 488 kts | 351° |
| 2026-05-06 08:36 | 10.46202 | 2.70533 | 35904 ft | 488 kts | 351° |
| 2026-05-06 08:36 | 10.52903 | 2.69510 | 35904 ft | 488 kts | 351° |
| 2026-05-06 08:37 | 10.59652 | 2.68478 | 35907 ft | 488 kts | 351° |
| 2026-05-06 08:37 | 10.66362 | 2.67452 | 35900 ft | 489 kts | 351° |
| 2026-05-06 08:38 | 10.73078 | 2.66424 | 35898 ft | 490 kts | 351° |
| 2026-05-06 08:38 | 10.79802 | 2.65394 | 35909 ft | 490 kts | 351° |
| 2026-05-06 08:39 | 10.86580 | 2.64356 | 35906 ft | 491 kts | 351° |
| 2026-05-06 08:39 | 10.93321 | 2.63323 | 35901 ft | 491 kts | 351° |
| 2026-05-06 08:40 | 11.00067 | 2.62289 | 35898 ft | 491 kts | 351° |
| 2026-05-06 08:40 | 11.06806 | 2.61198 | 35902 ft | 491 kts | 350° |
| 2026-05-06 08:41 | 11.13584 | 2.60059 | 35897 ft | 491 kts | 350° |
| 2026-05-06 08:41 | 11.20317 | 2.58933 | 35896 ft | 491 kts | 350° |
| 2026-05-06 08:42 | 11.27049 | 2.57816 | 35892 ft | 491 kts | 350° |
| 2026-05-06 08:42 | 11.33778 | 2.56700 | 35893 ft | 491 kts | 349° |
| 2026-05-06 08:43 | 11.40549 | 2.55577 | 35894 ft | 490 kts | 349° |
| 2026-05-06 08:43 | 11.47271 | 2.54461 | 35890 ft | 490 kts | 349° |
| 2026-05-06 08:44 | 11.53990 | 2.53345 | 35892 ft | 490 kts | 349° |
| 2026-05-06 08:44 | 11.60751 | 2.52221 | 35887 ft | 490 kts | 349° |
| 2026-05-06 08:45 | 11.67466 | 2.51104 | 35887 ft | 490 kts | 349° |
| 2026-05-06 08:45 | 11.74167 | 2.49988 | 35890 ft | 488 kts | 349° |
| 2026-05-06 08:46 | 11.80894 | 2.48862 | 35882 ft | 487 kts | 349° |
| 2026-05-06 08:46 | 11.86448 | 2.47931 | 35881 ft | 486 kts | 349° |
| 2026-05-06 08:47 | 11.93096 | 2.46818 | 35877 ft | 485 kts | 349° |
| 2026-05-06 08:47 | 11.99731 | 2.45706 | 35880 ft | 484 kts | 349° |
| 2026-05-06 08:48 | 12.06358 | 2.44596 | 35881 ft | 483 kts | 349° |
| 2026-05-06 08:48 | 12.13014 | 2.43479 | 35878 ft | 482 kts | 349° |
| 2026-05-06 08:49 | 12.19618 | 2.42372 | 35872 ft | 481 kts | 349° |
| 2026-05-06 08:49 | 12.26211 | 2.41264 | 35871 ft | 481 kts | 348° |
| 2026-05-06 08:50 | 12.32799 | 2.40158 | 35869 ft | 481 kts | 349° |
| 2026-05-06 08:50 | 12.39427 | 2.39044 | 35872 ft | 480 kts | 349° |
| 2026-05-06 08:51 | 12.46015 | 2.37937 | 35872 ft | 481 kts | 348° |
| 2026-05-06 08:51 | 12.52609 | 2.36827 | 35875 ft | 481 kts | 348° |
| 2026-05-06 08:52 | 12.59255 | 2.35709 | 35872 ft | 482 kts | 349° |
| 2026-05-06 08:52 | 12.65868 | 2.34595 | 35874 ft | 483 kts | 348° |
| 2026-05-06 08:53 | 12.72487 | 2.33480 | 35871 ft | 483 kts | 348° |
| 2026-05-06 08:53 | 12.79111 | 2.32364 | 35876 ft | 483 kts | 348° |
| 2026-05-06 08:54 | 12.85780 | 2.31239 | 35869 ft | 483 kts | 348° |
| 2026-05-06 08:54 | 12.92401 | 2.30122 | 35868 ft | 483 kts | 348° |
| 2026-05-06 08:55 | 12.98970 | 2.29013 | 35865 ft | 482 kts | 348° |
| 2026-05-06 08:55 | 13.05578 | 2.27896 | 35867 ft | 482 kts | 348° |
| 2026-05-06 08:56 | 13.12228 | 2.26773 | 35871 ft | 482 kts | 348° |
| 2026-05-06 08:56 | 13.18836 | 2.25655 | 35873 ft | 483 kts | 348° |
| 2026-05-06 08:57 | 13.25497 | 2.24528 | 35873 ft | 483 kts | 348° |
| 2026-05-06 08:57 | 13.32122 | 2.23407 | 35873 ft | 484 kts | 348° |
| 2026-05-06 08:58 | 13.38755 | 2.22283 | 35911 ft | 484 kts | 348° |
| 2026-05-06 08:58 | 13.45394 | 2.21158 | 35912 ft | 485 kts | 348° |
| 2026-05-06 08:59 | 13.52086 | 2.20372 | 35918 ft | 486 kts | 354° |
| 2026-05-06 08:59 | 13.58880 | 2.19994 | 35908 ft | 487 kts | 355° |
| 2026-05-06 09:00 | 13.65627 | 2.19632 | 35897 ft | 486 kts | 354° |
| 2026-05-06 09:00 | 13.72370 | 2.19244 | 35889 ft | 486 kts | 354° |
| 2026-05-06 09:01 | 13.79153 | 2.18838 | 35878 ft | 486 kts | 354° |
| 2026-05-06 09:01 | 13.85887 | 2.18431 | 35877 ft | 486 kts | 354° |
| 2026-05-06 09:02 | 13.92618 | 2.18025 | 35866 ft | 485 kts | 354° |
| 2026-05-06 09:02 | 13.99343 | 2.17620 | 35864 ft | 485 kts | 354° |
| 2026-05-06 09:03 | 14.06061 | 2.17216 | 35860 ft | 484 kts | 354° |
| 2026-05-06 09:03 | 14.12818 | 2.16809 | 35861 ft | 484 kts | 354° |
| 2026-05-06 09:04 | 14.19526 | 2.16405 | 35860 ft | 484 kts | 354° |
| 2026-05-06 09:04 | 14.26227 | 2.16001 | 35863 ft | 483 kts | 353° |
| 2026-05-06 09:05 | 14.32919 | 2.15597 | 35856 ft | 482 kts | 353° |
| 2026-05-06 09:05 | 14.39643 | 2.15191 | 35854 ft | 481 kts | 353° |
| 2026-05-06 09:06 | 14.46311 | 2.14788 | 35855 ft | 481 kts | 353° |
| 2026-05-06 09:06 | 14.52973 | 2.14385 | 35849 ft | 481 kts | 353° |
| 2026-05-06 09:07 | 14.59677 | 2.13980 | 35849 ft | 480 kts | 353° |
| 2026-05-06 09:07 | 14.66330 | 2.13577 | 35850 ft | 480 kts | 353° |
| 2026-05-06 09:08 | 14.72982 | 2.13174 | 35849 ft | 480 kts | 353° |
| 2026-05-06 09:08 | 14.79681 | 2.12768 | 35851 ft | 480 kts | 353° |
| 2026-05-06 09:09 | 14.86341 | 2.12364 | 35850 ft | 481 kts | 353° |
| 2026-05-06 09:09 | 14.93007 | 2.11960 | 35850 ft | 481 kts | 353° |
| 2026-05-06 09:10 | 14.99720 | 2.11552 | 35846 ft | 481 kts | 353° |
| 2026-05-06 09:10 | 15.06435 | 2.11144 | 35845 ft | 481 kts | 353° |
| 2026-05-06 09:11 | 15.13064 | 2.10741 | 35839 ft | 481 kts | 353° |
| 2026-05-06 09:11 | 15.19735 | 2.10335 | 35841 ft | 481 kts | 353° |
| 2026-05-06 09:12 | 15.26449 | 2.09927 | 35840 ft | 481 kts | 353° |
| 2026-05-06 09:12 | 15.33116 | 2.09521 | 35845 ft | 481 kts | 353° |
| 2026-05-06 09:13 | 15.39779 | 2.09115 | 35840 ft | 480 kts | 353° |
| 2026-05-06 09:13 | 15.46436 | 2.08709 | 35842 ft | 480 kts | 353° |
| 2026-05-06 09:14 | 15.53134 | 2.08300 | 35839 ft | 480 kts | 353° |
| 2026-05-06 09:14 | 15.59785 | 2.07894 | 35841 ft | 480 kts | 353° |
| 2026-05-06 09:15 | 15.66432 | 2.07488 | 35851 ft | 479 kts | 352° |
| 2026-05-06 09:15 | 15.73120 | 2.07079 | 35839 ft | 479 kts | 352° |
| 2026-05-06 09:16 | 15.79757 | 2.06673 | 35838 ft | 478 kts | 352° |
| 2026-05-06 09:16 | 15.86386 | 2.06268 | 35836 ft | 478 kts | 352° |
| 2026-05-06 09:17 | 15.93007 | 2.05862 | 35832 ft | 477 kts | 352° |
| 2026-05-06 09:17 | 15.99623 | 2.05456 | 35846 ft | 477 kts | 352° |
| 2026-05-06 09:18 | 16.06283 | 2.05048 | 35836 ft | 477 kts | 352° |
| 2026-05-06 09:18 | 16.12897 | 2.04642 | 35834 ft | 477 kts | 352° |
| 2026-05-06 09:19 | 16.19507 | 2.04237 | 35837 ft | 477 kts | 352° |
| 2026-05-06 09:19 | 16.26159 | 2.03831 | 35830 ft | 477 kts | 352° |
| 2026-05-06 09:20 | 16.32773 | 2.03503 | 35838 ft | 477 kts | 353° |
| 2026-05-06 09:20 | 16.39389 | 2.03211 | 35838 ft | 477 kts | 353° |
| 2026-05-06 09:21 | 16.46008 | 2.02913 | 35832 ft | 477 kts | 353° |
| 2026-05-06 09:21 | 16.52670 | 2.02604 | 35839 ft | 477 kts | 353° |
| 2026-05-06 09:22 | 16.59288 | 2.02294 | 35837 ft | 477 kts | 353° |
| 2026-05-06 09:22 | 16.65909 | 2.01983 | 35841 ft | 477 kts | 353° |
| 2026-05-06 09:23 | 16.72531 | 2.01672 | 35848 ft | 477 kts | 352° |
| 2026-05-06 09:23 | 16.79155 | 2.01361 | 35838 ft | 477 kts | 352° |
| 2026-05-06 09:24 | 16.85820 | 2.01048 | 35836 ft | 477 kts | 352° |
| 2026-05-06 09:24 | 16.92438 | 2.00736 | 35837 ft | 477 kts | 352° |
| 2026-05-06 09:25 | 16.99052 | 2.00425 | 35837 ft | 477 kts | 352° |
| 2026-05-06 09:25 | 17.05706 | 2.00112 | 35853 ft | 476 kts | 352° |
| 2026-05-06 09:26 | 17.12316 | 1.99801 | 35844 ft | 476 kts | 352° |
| 2026-05-06 09:26 | 17.18924 | 1.99489 | 35841 ft | 476 kts | 352° |
| 2026-05-06 09:27 | 17.25529 | 1.99177 | 35838 ft | 476 kts | 352° |
| 2026-05-06 09:27 | 17.32175 | 1.98863 | 35841 ft | 476 kts | 352° |
| 2026-05-06 09:28 | 17.38775 | 1.98551 | 35844 ft | 476 kts | 352° |
| 2026-05-06 09:28 | 17.45376 | 1.98240 | 35848 ft | 476 kts | 352° |
| 2026-05-06 09:29 | 17.52024 | 1.97925 | 35843 ft | 476 kts | 352° |
| 2026-05-06 09:29 | 17.58629 | 1.97612 | 35837 ft | 476 kts | 352° |
| 2026-05-06 09:30 | 17.65234 | 1.97299 | 35837 ft | 476 kts | 352° |
| 2026-05-06 09:30 | 17.71837 | 1.96986 | 35838 ft | 476 kts | 352° |
| 2026-05-06 09:31 | 17.78483 | 1.96671 | 35846 ft | 476 kts | 351° |
| 2026-05-06 09:31 | 17.85086 | 1.96357 | 35835 ft | 476 kts | 351° |
| 2026-05-06 09:32 | 17.91686 | 1.96043 | 35823 ft | 476 kts | 351° |
| 2026-05-06 09:32 | 17.98281 | 1.95730 | 35823 ft | 475 kts | 351° |
| 2026-05-06 09:33 | 18.03819 | 1.95466 | 35842 ft | 475 kts | 351° |
| 2026-05-06 09:33 | 18.10410 | 1.95152 | 35823 ft | 475 kts | 351° |
| 2026-05-06 09:34 | 18.16998 | 1.94838 | 35833 ft | 475 kts | 351° |
| 2026-05-06 09:34 | 18.23587 | 1.94524 | 35849 ft | 475 kts | 351° |
| 2026-05-06 09:35 | 18.30221 | 1.94207 | 35845 ft | 475 kts | 351° |
| 2026-05-06 09:35 | 18.36812 | 1.93892 | 35829 ft | 475 kts | 351° |
| 2026-05-06 09:36 | 18.43405 | 1.93577 | 35842 ft | 475 kts | 351° |
| 2026-05-06 09:36 | 18.50001 | 1.93262 | 35840 ft | 475 kts | 351° |
| 2026-05-06 09:37 | 18.56595 | 1.92946 | 35842 ft | 475 kts | 351° |
| 2026-05-06 09:37 | 18.63229 | 1.92628 | 35845 ft | 475 kts | 351° |
| 2026-05-06 09:38 | 18.69818 | 1.92312 | 35845 ft | 475 kts | 351° |
| 2026-05-06 09:38 | 18.76405 | 1.91996 | 35845 ft | 475 kts | 351° |
| 2026-05-06 09:39 | 18.82992 | 1.91680 | 35847 ft | 475 kts | 351° |
| 2026-05-06 09:39 | 18.89624 | 1.91361 | 35843 ft | 475 kts | 351° |
| 2026-05-06 09:40 | 18.96210 | 1.91044 | 35849 ft | 475 kts | 351° |
| 2026-05-06 09:40 | 19.06089 | 1.90568 | 35849 ft | 475 kts | 351° |
| 2026-05-06 09:41 | 19.12681 | 1.90250 | 35874 ft | 475 kts | 351° |
| 2026-05-06 09:41 | 19.19319 | 1.89930 | 35864 ft | 475 kts | 351° |
| 2026-05-06 09:42 | 19.25917 | 1.89612 | 35860 ft | 476 kts | 351° |
| 2026-05-06 09:42 | 19.32516 | 1.89293 | 35860 ft | 476 kts | 351° |
| 2026-05-06 09:43 | 19.39117 | 1.88973 | 35866 ft | 476 kts | 351° |
| 2026-05-06 09:43 | 19.45715 | 1.88655 | 35881 ft | 476 kts | 350° |
| 2026-05-06 09:44 | 19.52354 | 1.88334 | 35867 ft | 475 kts | 350° |
| 2026-05-06 09:44 | 19.58943 | 1.88014 | 35870 ft | 475 kts | 350° |
| 2026-05-06 09:45 | 19.65528 | 1.87694 | 35872 ft | 474 kts | 350° |
| 2026-05-06 09:45 | 19.72108 | 1.87374 | 35866 ft | 474 kts | 350° |
| 2026-05-06 09:46 | 19.78727 | 1.87053 | 35876 ft | 474 kts | 350° |
| 2026-05-06 09:46 | 19.85301 | 1.86733 | 35876 ft | 474 kts | 350° |
| 2026-05-06 09:47 | 19.91874 | 1.86414 | 35874 ft | 474 kts | 350° |
| 2026-05-06 09:47 | 19.98443 | 1.86094 | 35878 ft | 473 kts | 350° |
| 2026-05-06 09:48 | 20.05008 | 1.85773 | 35873 ft | 473 kts | 350° |
| 2026-05-06 09:48 | 20.11614 | 1.85450 | 35882 ft | 473 kts | 350° |
| 2026-05-06 09:49 | 20.18176 | 1.85130 | 35883 ft | 473 kts | 349° |
| 2026-05-06 09:49 | 20.24738 | 1.84809 | 35885 ft | 473 kts | 349° |
| 2026-05-06 09:50 | 20.31297 | 1.84489 | 35882 ft | 473 kts | 349° |
| 2026-05-06 09:50 | 20.37849 | 1.84168 | 35888 ft | 472 kts | 349° |
| 2026-05-06 09:51 | 20.44443 | 1.83845 | 35874 ft | 472 kts | 349° |
| 2026-05-06 09:51 | 20.50989 | 1.83524 | 35881 ft | 472 kts | 349° |
| 2026-05-06 09:52 | 20.57531 | 1.83203 | 35878 ft | 471 kts | 349° |
| 2026-05-06 09:52 | 20.64071 | 1.82882 | 35873 ft | 471 kts | 349° |
| 2026-05-06 09:53 | 20.70655 | 1.82559 | 35875 ft | 471 kts | 349° |
| 2026-05-06 09:53 | 20.77192 | 1.82231 | 35880 ft | 471 kts | 349° |
| 2026-05-06 09:54 | 20.83726 | 1.81880 | 35893 ft | 471 kts | 349° |
| 2026-05-06 09:54 | 20.90263 | 1.81523 | 35883 ft | 472 kts | 349° |
| 2026-05-06 09:55 | 20.96847 | 1.81168 | 35881 ft | 472 kts | 349° |
| 2026-05-06 09:55 | 21.03388 | 1.80817 | 35883 ft | 472 kts | 349° |
| 2026-05-06 09:56 | 21.09929 | 1.80467 | 35877 ft | 472 kts | 349° |
| 2026-05-06 09:56 | 21.16469 | 1.80115 | 35888 ft | 472 kts | 349° |
| 2026-05-06 09:57 | 21.23057 | 1.79761 | 35881 ft | 472 kts | 349° |
| 2026-05-06 09:57 | 21.29601 | 1.79409 | 35876 ft | 472 kts | 349° |
| 2026-05-06 09:58 | 21.36141 | 1.79057 | 35876 ft | 471 kts | 349° |
| 2026-05-06 09:58 | 21.42678 | 1.78704 | 35877 ft | 471 kts | 349° |
| 2026-05-06 09:59 | 21.49214 | 1.78351 | 35877 ft | 471 kts | 349° |
| 2026-05-06 09:59 | 21.55793 | 1.77996 | 35879 ft | 471 kts | 349° |
| 2026-05-06 10:00 | 21.62326 | 1.77642 | 35881 ft | 471 kts | 349° |
| 2026-05-06 10:00 | 21.68856 | 1.77289 | 35882 ft | 471 kts | 349° |
| 2026-05-06 10:01 | 21.75430 | 1.76933 | 35877 ft | 471 kts | 349° |
| 2026-05-06 10:01 | 21.81964 | 1.76579 | 35885 ft | 471 kts | 348° |
| 2026-05-06 10:02 | 21.88503 | 1.76223 | 35878 ft | 472 kts | 348° |
| 2026-05-06 10:02 | 21.95047 | 1.75868 | 35876 ft | 472 kts | 348° |
| 2026-05-06 10:03 | 22.01638 | 1.75510 | 35876 ft | 472 kts | 348° |
| 2026-05-06 10:03 | 22.08188 | 1.75153 | 35881 ft | 472 kts | 349° |
| 2026-05-06 10:04 | 22.14740 | 1.74796 | 35897 ft | 473 kts | 348° |
| 2026-05-06 10:04 | 22.21294 | 1.74439 | 35885 ft | 472 kts | 348° |
| 2026-05-06 10:05 | 22.27885 | 1.74080 | 35881 ft | 472 kts | 348° |
| 2026-05-06 10:05 | 22.34470 | 1.73720 | 35880 ft | 471 kts | 348° |
| 2026-05-06 10:06 | 22.40960 | 1.73366 | 35880 ft | 471 kts | 348° |
| 2026-05-06 10:06 | 22.47489 | 1.73008 | 35894 ft | 471 kts | 348° |
| 2026-05-06 10:07 | 22.54059 | 1.72648 | 35877 ft | 470 kts | 348° |
| 2026-05-06 10:07 | 22.60581 | 1.72291 | 35876 ft | 470 kts | 348° |
| 2026-05-06 10:08 | 22.67097 | 1.71933 | 35876 ft | 470 kts | 348° |
| 2026-05-06 10:08 | 22.73653 | 1.71573 | 35875 ft | 469 kts | 348° |
| 2026-05-06 10:09 | 22.80164 | 1.71215 | 35875 ft | 470 kts | 348° |
| 2026-05-06 10:09 | 22.86683 | 1.70855 | 35874 ft | 470 kts | 348° |
| 2026-05-06 10:10 | 22.93250 | 1.70493 | 35875 ft | 471 kts | 348° |
| 2026-05-06 10:10 | 22.99780 | 1.70133 | 35874 ft | 471 kts | 348° |
| 2026-05-06 10:11 | 23.06317 | 1.69772 | 35870 ft | 471 kts | 348° |
| 2026-05-06 10:11 | 23.12857 | 1.69412 | 35881 ft | 472 kts | 348° |
| 2026-05-06 10:12 | 23.19454 | 1.69047 | 35875 ft | 473 kts | 348° |
| 2026-05-06 10:12 | 23.26015 | 1.68684 | 35876 ft | 473 kts | 348° |
| 2026-05-06 10:13 | 23.32580 | 1.68320 | 35877 ft | 473 kts | 348° |
| 2026-05-06 10:13 | 23.39148 | 1.67957 | 35879 ft | 474 kts | 348° |
| 2026-05-06 10:14 | 23.45762 | 1.67590 | 35887 ft | 474 kts | 348° |
| 2026-05-06 10:14 | 23.52343 | 1.67224 | 35878 ft | 475 kts | 348° |
| 2026-05-06 10:15 | 23.58931 | 1.66858 | 35872 ft | 475 kts | 348° |
| 2026-05-06 10:15 | 23.65519 | 1.66494 | 35876 ft | 475 kts | 348° |
| 2026-05-06 10:16 | 23.72151 | 1.66126 | 35875 ft | 475 kts | 348° |
| 2026-05-06 10:16 | 23.78740 | 1.65761 | 35876 ft | 475 kts | 348° |
| 2026-05-06 10:17 | 23.85334 | 1.65394 | 35870 ft | 475 kts | 348° |
| 2026-05-06 10:17 | 23.91930 | 1.65028 | 35870 ft | 476 kts | 348° |
| 2026-05-06 10:18 | 23.98572 | 1.64658 | 35875 ft | 476 kts | 348° |
| 2026-05-06 10:18 | 24.05215 | 1.64288 | 35867 ft | 476 kts | 348° |
| 2026-05-06 10:19 | 24.11777 | 1.63921 | 35875 ft | 477 kts | 348° |
| 2026-05-06 10:19 | 24.18437 | 1.63549 | 35874 ft | 477 kts | 348° |
| 2026-05-06 10:20 | 24.25059 | 1.63180 | 35866 ft | 478 kts | 348° |
| 2026-05-06 10:20 | 24.31686 | 1.62809 | 35869 ft | 478 kts | 348° |
| 2026-05-06 10:21 | 24.38317 | 1.62438 | 35890 ft | 478 kts | 347° |
| 2026-05-06 10:21 | 24.44957 | 1.62065 | 35875 ft | 479 kts | 347° |
| 2026-05-06 10:22 | 24.51648 | 1.61689 | 35872 ft | 479 kts | 347° |
| 2026-05-06 10:22 | 24.58300 | 1.61315 | 35867 ft | 480 kts | 347° |
| 2026-05-06 10:23 | 24.64952 | 1.60942 | 35874 ft | 480 kts | 347° |
| 2026-05-06 10:23 | 24.71612 | 1.60568 | 35872 ft | 480 kts | 347° |
| 2026-05-06 10:24 | 24.77208 | 1.60252 | 35870 ft | 480 kts | 347° |
| 2026-05-06 10:24 | 24.83869 | 1.59876 | 35865 ft | 480 kts | 347° |
| 2026-05-06 10:25 | 24.90525 | 1.59501 | 35872 ft | 480 kts | 347° |
| 2026-05-06 10:25 | 24.97176 | 1.59125 | 35864 ft | 479 kts | 347° |
| 2026-05-06 10:26 | 25.03869 | 1.58747 | 35888 ft | 480 kts | 347° |
| 2026-05-06 10:26 | 25.10526 | 1.58368 | 35876 ft | 480 kts | 347° |
| 2026-05-06 10:27 | 25.17175 | 1.57991 | 35875 ft | 479 kts | 347° |
| 2026-05-06 10:27 | 25.23820 | 1.57615 | 35855 ft | 479 kts | 347° |
| 2026-05-06 10:28 | 25.30508 | 1.57235 | 35853 ft | 479 kts | 347° |
| 2026-05-06 10:28 | 25.37150 | 1.56856 | 35869 ft | 479 kts | 347° |
| 2026-05-06 10:29 | 25.43799 | 1.56476 | 35861 ft | 480 kts | 347° |
| 2026-05-06 10:29 | 25.50497 | 1.56095 | 35860 ft | 480 kts | 347° |
| 2026-05-06 10:30 | 25.57153 | 1.55715 | 35859 ft | 480 kts | 347° |
| 2026-05-06 10:30 | 25.63811 | 1.55334 | 35889 ft | 480 kts | 347° |
| 2026-05-06 10:31 | 25.70482 | 1.54951 | 35867 ft | 481 kts | 347° |
| 2026-05-06 10:31 | 25.77207 | 1.54567 | 35851 ft | 482 kts | 347° |
| 2026-05-06 10:32 | 25.83894 | 1.54184 | 35852 ft | 482 kts | 347° |
| 2026-05-06 10:32 | 25.90578 | 1.53800 | 35860 ft | 482 kts | 347° |
| 2026-05-06 10:33 | 25.97261 | 1.53415 | 35861 ft | 482 kts | 347° |
| 2026-05-06 10:33 | 26.03994 | 1.53028 | 35852 ft | 482 kts | 347° |
| 2026-05-06 10:34 | 26.10685 | 1.52642 | 35860 ft | 483 kts | 347° |
| 2026-05-06 10:34 | 26.17385 | 1.52256 | 35852 ft | 483 kts | 347° |
| 2026-05-06 10:35 | 26.24094 | 1.51868 | 35851 ft | 484 kts | 347° |
| 2026-05-06 10:35 | 26.30817 | 1.51479 | 35860 ft | 485 kts | 347° |
| 2026-05-06 10:36 | 26.37556 | 1.51089 | 35851 ft | 486 kts | 347° |
| 2026-05-06 10:36 | 26.44352 | 1.50696 | 35850 ft | 487 kts | 347° |
| 2026-05-06 10:37 | 26.51111 | 1.50304 | 35847 ft | 488 kts | 347° |
| 2026-05-06 10:37 | 26.57875 | 1.49912 | 35879 ft | 488 kts | 347° |
| 2026-05-06 10:38 | 26.64646 | 1.49518 | 35854 ft | 488 kts | 347° |
| 2026-05-06 10:38 | 26.71453 | 1.49122 | 35846 ft | 487 kts | 347° |
| 2026-05-06 10:39 | 26.78201 | 1.48730 | 35839 ft | 486 kts | 347° |
| 2026-05-06 10:39 | 26.84935 | 1.48337 | 35854 ft | 485 kts | 347° |
| 2026-05-06 10:40 | 26.91656 | 1.47944 | 35850 ft | 484 kts | 347° |
| 2026-05-06 10:40 | 26.98458 | 1.47546 | 35850 ft | 483 kts | 347° |
| 2026-05-06 10:41 | 27.05153 | 1.47154 | 35858 ft | 482 kts | 347° |
| 2026-05-06 10:41 | 27.11858 | 1.46760 | 35846 ft | 482 kts | 347° |
| 2026-05-06 10:42 | 27.18550 | 1.46368 | 35871 ft | 482 kts | 347° |
| 2026-05-06 10:42 | 27.25242 | 1.45974 | 35864 ft | 482 kts | 347° |
| 2026-05-06 10:43 | 27.31932 | 1.45580 | 35854 ft | 481 kts | 347° |
| 2026-05-06 10:44 | 27.41958 | 1.44991 | 35857 ft | 481 kts | 347° |
| 2026-05-06 10:44 | 27.48641 | 1.44597 | 35881 ft | 481 kts | 347° |
| 2026-05-06 10:45 | 27.55330 | 1.44219 | 35867 ft | 482 kts | 347° |
| 2026-05-06 10:45 | 27.61979 | 1.43851 | 35862 ft | 482 kts | 347° |
| 2026-05-06 10:46 | 27.68674 | 1.43479 | 35855 ft | 482 kts | 347° |
| 2026-05-06 10:46 | 27.75368 | 1.43105 | 35856 ft | 481 kts | 347° |
| 2026-05-06 10:47 | 27.82060 | 1.42730 | 35857 ft | 482 kts | 347° |
| 2026-05-06 10:47 | 27.88737 | 1.42355 | 35856 ft | 481 kts | 347° |
| 2026-05-06 10:48 | 27.95425 | 1.41978 | 35859 ft | 481 kts | 347° |
| 2026-05-06 10:48 | 28.02134 | 1.41601 | 35857 ft | 481 kts | 347° |
| 2026-05-06 10:49 | 28.08823 | 1.41223 | 35869 ft | 481 kts | 347° |
| 2026-05-06 10:49 | 28.15512 | 1.40846 | 35864 ft | 481 kts | 347° |
| 2026-05-06 10:50 | 28.22200 | 1.40468 | 35854 ft | 481 kts | 347° |
| 2026-05-06 10:50 | 28.28883 | 1.40090 | 35847 ft | 481 kts | 347° |
| 2026-05-06 10:51 | 28.35569 | 1.39712 | 35861 ft | 481 kts | 347° |
| 2026-05-06 10:51 | 28.42252 | 1.39332 | 35855 ft | 481 kts | 348° |
| 2026-05-06 10:52 | 28.48936 | 1.38953 | 35848 ft | 481 kts | 348° |
| 2026-05-06 10:52 | 28.55618 | 1.38573 | 35843 ft | 481 kts | 348° |
| 2026-05-06 10:53 | 28.62309 | 1.38192 | 35846 ft | 481 kts | 348° |
| 2026-05-06 10:53 | 28.68994 | 1.37810 | 35857 ft | 481 kts | 348° |
| 2026-05-06 10:54 | 28.75677 | 1.37429 | 35845 ft | 481 kts | 348° |
| 2026-05-06 10:54 | 28.82307 | 1.37052 | 35841 ft | 480 kts | 348° |
| 2026-05-06 10:55 | 28.88970 | 1.36670 | 35839 ft | 479 kts | 348° |
| 2026-05-06 10:55 | 28.95608 | 1.36290 | 35861 ft | 478 kts | 348° |
| 2026-05-06 10:56 | 29.02254 | 1.35907 | 35847 ft | 479 kts | 348° |
| 2026-05-06 10:56 | 29.08909 | 1.35525 | 35832 ft | 479 kts | 348° |
| 2026-05-06 10:57 | 29.15570 | 1.35142 | 35834 ft | 480 kts | 348° |
| 2026-05-06 10:57 | 29.22247 | 1.34757 | 35833 ft | 480 kts | 348° |
| 2026-05-06 10:58 | 29.28923 | 1.34372 | 35839 ft | 481 kts | 348° |
| 2026-05-06 10:58 | 29.35612 | 1.33986 | 35831 ft | 482 kts | 348° |
| 2026-05-06 10:59 | 29.42332 | 1.33598 | 35829 ft | 482 kts | 348° |
| 2026-05-06 10:59 | 29.49035 | 1.33210 | 35831 ft | 482 kts | 348° |
| 2026-05-06 11:00 | 29.55742 | 1.32822 | 35858 ft | 483 kts | 348° |
| 2026-05-06 11:00 | 29.62450 | 1.32433 | 35839 ft | 482 kts | 348° |
| 2026-05-06 11:01 | 29.69144 | 1.32045 | 35836 ft | 481 kts | 348° |
| 2026-05-06 11:01 | 29.75771 | 1.31659 | 35822 ft | 480 kts | 348° |
| 2026-05-06 11:02 | 29.82437 | 1.31260 | 35849 ft | 479 kts | 347° |
| 2026-05-06 11:02 | 29.89101 | 1.30849 | 35833 ft | 480 kts | 347° |
| 2026-05-06 11:03 | 29.95776 | 1.30437 | 35831 ft | 481 kts | 347° |
| 2026-05-06 11:03 | 30.02484 | 1.30027 | 35830 ft | 481 kts | 347° |
| 2026-05-06 11:04 | 30.09177 | 1.29618 | 35834 ft | 482 kts | 347° |
| 2026-05-06 11:04 | 30.15882 | 1.29206 | 35837 ft | 483 kts | 347° |
| 2026-05-06 11:05 | 30.22605 | 1.28801 | 35835 ft | 484 kts | 347° |
| 2026-05-06 11:05 | 30.29346 | 1.28405 | 35831 ft | 485 kts | 347° |
| 2026-05-06 11:06 | 30.36093 | 1.28007 | 35831 ft | 486 kts | 347° |
| 2026-05-06 11:06 | 30.42830 | 1.27609 | 35833 ft | 487 kts | 347° |
| 2026-05-06 11:07 | 30.49587 | 1.27208 | 35839 ft | 486 kts | 347° |
| 2026-05-06 11:07 | 30.56341 | 1.26807 | 35828 ft | 486 kts | 347° |
| 2026-05-06 11:08 | 30.63099 | 1.26405 | 35826 ft | 485 kts | 347° |
| 2026-05-06 11:08 | 30.69836 | 1.26004 | 35825 ft | 485 kts | 347° |
| 2026-05-06 11:09 | 30.76512 | 1.25605 | 35824 ft | 485 kts | 347° |
| 2026-05-06 11:09 | 30.83232 | 1.25203 | 35826 ft | 484 kts | 347° |
| 2026-05-06 11:10 | 30.89949 | 1.24802 | 35824 ft | 484 kts | 347° |
| 2026-05-06 11:10 | 30.96663 | 1.24400 | 35850 ft | 484 kts | 347° |
| 2026-05-06 11:11 | 31.03423 | 1.23994 | 35813 ft | 484 kts | 346° |
| 2026-05-06 11:11 | 31.10137 | 1.23593 | 35835 ft | 484 kts | 347° |
| 2026-05-06 11:12 | 31.16854 | 1.23191 | 35833 ft | 484 kts | 347° |
| 2026-05-06 11:12 | 31.23574 | 1.22791 | 35832 ft | 485 kts | 347° |
| 2026-05-06 11:13 | 31.29223 | 1.22454 | 35830 ft | 485 kts | 346° |
| 2026-05-06 11:13 | 31.35951 | 1.22052 | 35825 ft | 485 kts | 346° |
| 2026-05-06 11:14 | 31.42681 | 1.21647 | 35826 ft | 485 kts | 346° |
| 2026-05-06 11:14 | 31.49410 | 1.21244 | 35824 ft | 485 kts | 346° |
| 2026-05-06 11:15 | 31.56184 | 1.20836 | 35857 ft | 487 kts | 346° |
| 2026-05-06 11:15 | 31.59566 | 1.20630 | 36048 ft | 489 kts | 346° |
| 2026-05-06 11:15 | 31.62955 | 1.20425 | 36393 ft | 488 kts | 346° |
| 2026-05-06 11:15 | 31.66336 | 1.20224 | 36759 ft | 487 kts | 346° |
| 2026-05-06 11:16 | 31.69712 | 1.20024 | 37070 ft | 486 kts | 346° |
| 2026-05-06 11:16 | 31.73080 | 1.19822 | 37418 ft | 485 kts | 346° |
| 2026-05-06 11:16 | 31.76432 | 1.19620 | 37813 ft | 482 kts | 346° |
| 2026-05-06 11:17 | 31.83221 | 1.19203 | 37825 ft | 488 kts | 346° |
| 2026-05-06 11:17 | 31.89903 | 1.18810 | 37804 ft | 476 kts | 345° |
| 2026-05-06 11:18 | 31.96481 | 1.18422 | 37832 ft | 474 kts | 345° |
| 2026-05-06 11:18 | 32.03070 | 1.18025 | 37827 ft | 476 kts | 345° |
| 2026-05-06 11:19 | 32.09724 | 1.17627 | 37847 ft | 478 kts | 345° |
| 2026-05-06 11:19 | 32.16360 | 1.17232 | 37833 ft | 479 kts | 345° |
| 2026-05-06 11:20 | 32.23007 | 1.16840 | 37829 ft | 479 kts | 345° |
| 2026-05-06 11:20 | 32.29702 | 1.16443 | 37829 ft | 479 kts | 345° |
| 2026-05-06 11:21 | 32.36392 | 1.16045 | 37859 ft | 479 kts | 345° |
| 2026-05-06 11:21 | 32.42987 | 1.15652 | 37844 ft | 478 kts | 345° |
| 2026-05-06 11:22 | 32.49604 | 1.15259 | 37826 ft | 476 kts | 345° |
| 2026-05-06 11:22 | 32.56243 | 1.14862 | 37833 ft | 475 kts | 345° |
| 2026-05-06 11:23 | 32.62820 | 1.14467 | 37884 ft | 474 kts | 345° |
| 2026-05-06 11:23 | 32.69407 | 1.14069 | 37857 ft | 475 kts | 345° |
| 2026-05-06 11:24 | 32.76051 | 1.13668 | 37853 ft | 476 kts | 345° |
| 2026-05-06 11:24 | 32.82662 | 1.13270 | 37856 ft | 477 kts | 345° |
| 2026-05-06 11:25 | 32.89344 | 1.12867 | 37890 ft | 478 kts | 345° |
| 2026-05-06 11:25 | 32.96011 | 1.12464 | 37865 ft | 481 kts | 345° |
| 2026-05-06 11:26 | 33.02691 | 1.12059 | 37850 ft | 483 kts | 345° |
| 2026-05-06 11:26 | 33.09406 | 1.11653 | 37857 ft | 484 kts | 345° |
| 2026-05-06 11:27 | 33.16135 | 1.11247 | 37895 ft | 485 kts | 345° |
| 2026-05-06 11:27 | 33.22895 | 1.10835 | 37863 ft | 486 kts | 344° |
| 2026-05-06 11:28 | 33.29675 | 1.10424 | 37878 ft | 487 kts | 344° |
| 2026-05-06 11:28 | 33.36446 | 1.10012 | 37875 ft | 487 kts | 344° |
| 2026-05-06 11:29 | 33.43219 | 1.09600 | 37898 ft | 487 kts | 344° |
| 2026-05-06 11:29 | 33.49981 | 1.09188 | 37929 ft | 486 kts | 344° |
| 2026-05-06 11:30 | 33.56735 | 1.08774 | 37949 ft | 486 kts | 344° |
| 2026-05-06 11:30 | 33.63488 | 1.08361 | 37966 ft | 486 kts | 344° |
| 2026-05-06 11:31 | 33.70177 | 1.07689 | 38005 ft | 474 kts | 337° |
| 2026-05-06 11:31 | 33.76417 | 1.05741 | 37903 ft | 455 kts | 327° |
| 2026-05-06 11:32 | 33.82370 | 1.03188 | 37902 ft | 454 kts | 327° |
| 2026-05-06 11:32 | 33.88268 | 1.00648 | 37900 ft | 455 kts | 327° |
| 2026-05-06 11:33 | 33.94201 | 0.98122 | 37902 ft | 455 kts | 327° |
| 2026-05-06 11:33 | 34.00170 | 0.95594 | 37914 ft | 456 kts | 327° |
| 2026-05-06 11:34 | 34.06227 | 0.93031 | 37906 ft | 456 kts | 327° |
| 2026-05-06 11:34 | 34.12170 | 0.90512 | 37908 ft | 457 kts | 327° |
| 2026-05-06 11:35 | 34.18153 | 0.87971 | 37893 ft | 457 kts | 327° |
| 2026-05-06 11:35 | 34.24177 | 0.85408 | 37916 ft | 458 kts | 327° |
| 2026-05-06 11:36 | 34.30174 | 0.82852 | 37915 ft | 458 kts | 327° |
| 2026-05-06 11:36 | 34.36177 | 0.80291 | 37904 ft | 459 kts | 327° |
| 2026-05-06 11:37 | 34.42183 | 0.77724 | 37904 ft | 459 kts | 327° |
| 2026-05-06 11:37 | 34.48234 | 0.75134 | 37958 ft | 460 kts | 328° |
| 2026-05-06 11:38 | 34.54266 | 0.72546 | 37913 ft | 461 kts | 328° |
| 2026-05-06 11:38 | 34.60309 | 0.69953 | 37908 ft | 462 kts | 328° |
| 2026-05-06 11:39 | 34.66359 | 0.67351 | 37913 ft | 462 kts | 328° |
| 2026-05-06 11:39 | 34.72455 | 0.64726 | 37913 ft | 463 kts | 328° |
| 2026-05-06 11:40 | 34.78517 | 0.62111 | 37915 ft | 463 kts | 328° |
| 2026-05-06 11:40 | 34.84581 | 0.59492 | 37927 ft | 464 kts | 328° |
| 2026-05-06 11:41 | 34.90646 | 0.56868 | 37918 ft | 463 kts | 328° |
| 2026-05-06 11:41 | 34.96706 | 0.54242 | 37923 ft | 463 kts | 328° |
| 2026-05-06 11:42 | 35.02806 | 0.51593 | 37943 ft | 464 kts | 328° |
| 2026-05-06 11:42 | 35.08871 | 0.48957 | 37929 ft | 463 kts | 328° |
| 2026-05-06 11:43 | 35.14928 | 0.46319 | 37926 ft | 463 kts | 328° |
| 2026-05-06 11:43 | 35.20978 | 0.43682 | 37942 ft | 462 kts | 328° |
| 2026-05-06 11:44 | 35.30059 | 0.39714 | 37936 ft | 460 kts | 328° |
| 2026-05-06 11:44 | 35.36063 | 0.37084 | 37960 ft | 459 kts | 328° |
| 2026-05-06 11:45 | 35.42066 | 0.34449 | 37940 ft | 459 kts | 328° |
| 2026-05-06 11:45 | 35.48076 | 0.31810 | 37936 ft | 460 kts | 328° |
| 2026-05-06 11:46 | 35.54144 | 0.29152 | 37925 ft | 462 kts | 328° |
| 2026-05-06 11:46 | 35.60201 | 0.26530 | 37934 ft | 463 kts | 328° |
| 2026-05-06 11:47 | 35.66270 | 0.23901 | 37928 ft | 464 kts | 328° |
| 2026-05-06 11:47 | 35.72341 | 0.21262 | 37924 ft | 464 kts | 328° |
| 2026-05-06 11:48 | 35.78454 | 0.18598 | 37936 ft | 464 kts | 329° |
| 2026-05-06 11:48 | 35.84534 | 0.15946 | 37932 ft | 464 kts | 329° |
| 2026-05-06 11:49 | 35.90710 | 0.13508 | 37927 ft | 474 kts | 336° |
| 2026-05-06 11:49 | 35.97304 | 0.12225 | 37938 ft | 484 kts | 342° |
| 2026-05-06 11:50 | 36.04018 | 0.11183 | 37929 ft | 484 kts | 342° |
| 2026-05-06 11:50 | 36.10675 | 0.10097 | 37930 ft | 483 kts | 341° |
| 2026-05-06 11:51 | 36.17316 | 0.08971 | 37929 ft | 483 kts | 341° |
| 2026-05-06 11:51 | 36.23954 | 0.07841 | 37930 ft | 482 kts | 341° |
| 2026-05-06 11:52 | 36.30624 | 0.06710 | 37828 ft | 481 kts | 342° |
| 2026-05-06 11:52 | 36.33955 | 0.06161 | 37250 ft | 486 kts | 343° |
| 2026-05-06 11:52 | 36.37294 | 0.05626 | 36839 ft | 482 kts | 343° |
| 2026-05-06 11:53 | 36.40599 | 0.05107 | 36372 ft | 477 kts | 343° |
| 2026-05-06 11:53 | 36.43869 | 0.04593 | 35923 ft | 472 kts | 343° |
| 2026-05-06 11:53 | 36.47104 | 0.04079 | 35496 ft | 467 kts | 343° |
| 2026-05-06 11:53 | 36.50308 | 0.03566 | 35071 ft | 463 kts | 344° |
| 2026-05-06 11:54 | 36.53528 | 0.03045 | 34612 ft | 460 kts | 345° |
| 2026-05-06 11:54 | 36.56682 | 0.02535 | 34151 ft | 457 kts | 345° |
| 2026-05-06 11:54 | 36.59815 | 0.02027 | 33684 ft | 453 kts | 345° |
| 2026-05-06 11:54 | 36.62926 | 0.01523 | 33179 ft | 450 kts | 346° |
| 2026-05-06 11:55 | 36.66011 | 0.01024 | 32734 ft | 446 kts | 346° |
| 2026-05-06 11:55 | 36.69070 | 0.00529 | 32266 ft | 442 kts | 346° |
| 2026-05-06 11:55 | 36.72102 | 0.00038 | 31834 ft | 439 kts | 346° |
| 2026-05-06 11:55 | 36.75110 | -0.00451 | 31430 ft | 435 kts | 346° |
| 2026-05-06 11:56 | 36.78135 | -0.00941 | 30970 ft | 432 kts | 346° |
| 2026-05-06 11:56 | 36.81100 | -0.01423 | 30544 ft | 429 kts | 346° |
| 2026-05-06 11:56 | 36.84028 | -0.01978 | 30098 ft | 421 kts | 339° |
| 2026-05-06 11:56 | 36.86668 | -0.03304 | 29612 ft | 402 kts | 321° |
| 2026-05-06 11:57 | 36.88844 | -0.05368 | 29107 ft | 388 kts | 308° |
| 2026-05-06 11:57 | 36.90555 | -0.07884 | 28648 ft | 377 kts | 301° |
| 2026-05-06 11:57 | 36.92120 | -0.10486 | 28154 ft | 374 kts | 300° |
| 2026-05-06 11:57 | 36.93665 | -0.13078 | 27688 ft | 371 kts | 300° |
| 2026-05-06 11:58 | 36.95220 | -0.15687 | 27221 ft | 369 kts | 300° |
| 2026-05-06 11:58 | 36.96787 | -0.18308 | 26751 ft | 367 kts | 301° |
| 2026-05-06 11:58 | 36.98314 | -0.20853 | 26284 ft | 365 kts | 301° |
| 2026-05-06 11:58 | 36.99835 | -0.23383 | 25862 ft | 363 kts | 301° |
| 2026-05-06 11:59 | 37.01331 | -0.25867 | 25423 ft | 361 kts | 301° |
| 2026-05-06 11:59 | 37.02839 | -0.28370 | 24968 ft | 360 kts | 301° |
| 2026-05-06 11:59 | 37.04336 | -0.30854 | 24526 ft | 359 kts | 301° |
| 2026-05-06 11:59 | 37.05838 | -0.33346 | 24097 ft | 358 kts | 301° |
| 2026-05-06 12:00 | 37.07330 | -0.35825 | 23634 ft | 357 kts | 301° |
| 2026-05-06 12:00 | 37.08825 | -0.38310 | 23146 ft | 356 kts | 301° |
| 2026-05-06 12:00 | 37.10314 | -0.40785 | 22681 ft | 354 kts | 301° |
| 2026-05-06 12:00 | 37.11790 | -0.43240 | 22208 ft | 352 kts | 301° |
| 2026-05-06 12:01 | 37.13261 | -0.45689 | 21765 ft | 350 kts | 301° |
| 2026-05-06 12:01 | 37.14723 | -0.48124 | 21337 ft | 348 kts | 301° |
| 2026-05-06 12:01 | 37.16167 | -0.50533 | 20940 ft | 345 kts | 301° |
| 2026-05-06 12:01 | 37.17139 | -0.52154 | 20654 ft | 344 kts | 302° |
| 2026-05-06 12:02 | 37.19033 | -0.55317 | 20096 ft | 342 kts | 302° |
| 2026-05-06 12:02 | 37.19984 | -0.56906 | 19813 ft | 341 kts | 302° |
| 2026-05-06 12:02 | 37.21404 | -0.59280 | 19397 ft | 339 kts | 302° |
| 2026-05-06 12:02 | 37.22818 | -0.61647 | 18980 ft | 338 kts | 302° |
| 2026-05-06 12:03 | 37.24227 | -0.64006 | 18568 ft | 338 kts | 302° |
| 2026-05-06 12:03 | 37.25633 | -0.66362 | 18121 ft | 338 kts | 303° |
| 2026-05-06 12:03 | 37.27039 | -0.68720 | 17644 ft | 337 kts | 303° |
| 2026-05-06 12:03 | 37.28439 | -0.71068 | 17202 ft | 335 kts | 303° |
| 2026-05-06 12:04 | 37.29829 | -0.73402 | 16771 ft | 333 kts | 303° |
| 2026-05-06 12:04 | 37.31212 | -0.75725 | 16364 ft | 331 kts | 303° |
| 2026-05-06 12:04 | 37.32589 | -0.78039 | 15942 ft | 330 kts | 303° |
| 2026-05-06 12:04 | 37.33957 | -0.80342 | 15524 ft | 328 kts | 303° |
| 2026-05-06 12:05 | 37.35319 | -0.82635 | 15111 ft | 327 kts | 303° |
| 2026-05-06 12:05 | 37.36668 | -0.84908 | 14719 ft | 326 kts | 304° |
| 2026-05-06 12:05 | 37.38021 | -0.87189 | 14317 ft | 324 kts | 304° |
| 2026-05-06 12:05 | 37.39369 | -0.89463 | 13913 ft | 323 kts | 304° |
| 2026-05-06 12:06 | 37.40708 | -0.91723 | 13474 ft | 322 kts | 304° |
| 2026-05-06 12:06 | 37.42046 | -0.93984 | 13037 ft | 321 kts | 304° |
| 2026-05-06 12:06 | 37.43373 | -0.96226 | 12641 ft | 319 kts | 304° |
| 2026-05-06 12:06 | 37.44695 | -0.98463 | 12231 ft | 317 kts | 304° |
| 2026-05-06 12:07 | 37.46009 | -1.00686 | 11847 ft | 315 kts | 304° |
| 2026-05-06 12:07 | 37.47311 | -1.02891 | 11455 ft | 314 kts | 304° |
| 2026-05-06 12:07 | 37.48609 | -1.05092 | 11061 ft | 312 kts | 304° |
| 2026-05-06 12:07 | 37.49909 | -1.07287 | 10643 ft | 308 kts | 306° |
| 2026-05-06 12:08 | 37.51503 | -1.09031 | 10305 ft | 305 kts | 330° |
| 2026-05-06 12:08 | 37.53480 | -1.09858 | 10165 ft | 296 kts | 345° |
| 2026-05-06 12:08 | 37.55381 | -1.10704 | 9522 ft | 284 kts | 322° |
| 2026-05-06 12:08 | 37.56543 | -1.12549 | 8880 ft | 264 kts | 288° |
| 2026-05-06 12:09 | 37.56542 | -1.14726 | 8576 ft | 240 kts | 247° |
| 2026-05-06 12:09 | 37.55510 | -1.16273 | 8449 ft | 232 kts | 220° |
| 2026-05-06 12:09 | 37.54462 | -1.17764 | 8159 ft | 232 kts | 246° |
| 2026-05-06 12:09 | 37.54205 | -1.19704 | 7940 ft | 225 kts | 278° |
| 2026-05-06 12:10 | 37.54626 | -1.21573 | 7701 ft | 219 kts | 289° |
| 2026-05-06 12:10 | 37.55167 | -1.23357 | 7407 ft | 216 kts | 290° |
| 2026-05-06 12:10 | 37.55709 | -1.25109 | 7139 ft | 212 kts | 291° |
| 2026-05-06 12:10 | 37.56238 | -1.26807 | 6908 ft | 205 kts | 291° |
| 2026-05-06 12:11 | 37.56753 | -1.28457 | 6630 ft | 199 kts | 291° |
| 2026-05-06 12:11 | 37.57259 | -1.30076 | 6379 ft | 199 kts | 291° |
| 2026-05-06 12:11 | 37.57766 | -1.31696 | 6151 ft | 197 kts | 291° |
| 2026-05-06 12:11 | 37.58252 | -1.33274 | 5905 ft | 189 kts | 288° |
| 2026-05-06 12:12 | 37.58651 | -1.34864 | 5691 ft | 192 kts | 289° |
| 2026-05-06 12:12 | 37.59253 | -1.36355 | 5464 ft | 191 kts | 314° |
| 2026-05-06 12:12 | 37.60371 | -1.37133 | 5282 ft | 182 kts | 347° |
| 2026-05-06 12:12 | 37.61633 | -1.37361 | 5082 ft | 186 kts | 1° |
| 2026-05-06 12:13 | 37.62924 | -1.37408 | 4851 ft | 186 kts | 354° |
| 2026-05-06 12:13 | 37.64093 | -1.37008 | 4529 ft | 176 kts | 47° |
| 2026-05-06 12:13 | 37.64828 | -1.35792 | 4463 ft | 178 kts | 54° |
| 2026-05-06 12:13 | 37.65591 | -1.34551 | 4356 ft | 179 kts | 53° |
| 2026-05-06 12:14 | 37.66353 | -1.33341 | 4310 ft | 173 kts | 52° |
| 2026-05-06 12:14 | 37.67093 | -1.32159 | 4219 ft | 171 kts | 53° |
| 2026-05-06 12:14 | 37.67804 | -1.30988 | 4127 ft | 171 kts | 54° |
| 2026-05-06 12:14 | 37.68490 | -1.29773 | 4044 ft | 170 kts | 56° |
| 2026-05-06 12:15 | 37.69162 | -1.28551 | 3973 ft | 168 kts | 56° |
| 2026-05-06 12:15 | 37.69804 | -1.27326 | 3882 ft | 167 kts | 58° |
| 2026-05-06 12:15 | 37.70436 | -1.26125 | 3570 ft | 161 kts | 57° |
| 2026-05-06 12:15 | 37.71047 | -1.24976 | 3208 ft | 154 kts | 57° |
| 2026-05-06 12:16 | 37.71676 | -1.23851 | 2807 ft | 153 kts | 54° |
| 2026-05-06 12:16 | 37.72355 | -1.22831 | 2596 ft | 151 kts | 51° |
| 2026-05-06 12:16 | 37.73062 | -1.21864 | 2386 ft | 153 kts | 50° |
| 2026-05-06 12:16 | 37.73794 | -1.20879 | 2248 ft | 155 kts | 48° |
| 2026-05-06 12:17 | 37.74549 | -1.19919 | 2109 ft | 154 kts | 47° |
| 2026-05-06 12:17 | 37.75299 | -1.18939 | 1935 ft | 155 kts | 48° |
| 2026-05-06 12:17 | 37.76041 | -1.17968 | 1683 ft | 152 kts | 47° |
| 2026-05-06 12:17 | 37.76809 | -1.17016 | 1444 ft | 157 kts | 47° |
| 2026-05-06 12:18 | 37.77567 | -1.16033 | 1224 ft | 155 kts | 49° |
| 2026-05-06 12:18 | 37.78301 | -1.15067 | 999 ft | 148 kts | 48° |
| 2026-05-06 12:18 | 37.79015 | -1.14148 | 791 ft | 146 kts | 49° |
| 2026-05-06 12:18 | 37.79721 | -1.13244 | 664 ft | 139 kts | 51° |
| 2026-05-06 12:19 | 37.80320 | -1.12464 | 657 ft | 104 kts | 45° |
| 2026-05-06 12:19 | 37.80717 | -1.11953 | 658 ft | 59 kts | 45° |
| 2026-05-06 12:19 | 37.80961 | -1.11641 | 661 ft | 45 kts | 45° |
| 2026-05-06 12:19 | 37.81143 | -1.11409 | 657 ft | 26 kts | 45° |
| 2026-05-06 12:20 | 37.81233 | -1.11303 | 656 ft | 14 kts | 22° |
| 2026-05-06 12:20 | 37.81305 | -1.11354 | 657 ft | 11 kts | 312° |
| 2026-05-06 12:20 | 37.81340 | -1.11415 | 657 ft | 8 kts | 294° |
| 2026-05-06 12:20 | 37.81327 | -1.11478 | 657 ft | 8 kts | 230° |
| 2026-05-06 12:21 | 37.81285 | -1.11533 | 657 ft | 10 kts | 226° |
| 2026-05-06 12:21 | 37.81217 | -1.11620 | 657 ft | 18 kts | 225° |
| 2026-05-06 12:21 | 37.81117 | -1.11748 | 657 ft | 22 kts | 225° |
| 2026-05-06 12:21 | 37.81011 | -1.11884 | 657 ft | 22 kts | 225° |
| 2026-05-06 12:22 | 37.80904 | -1.12019 | 657 ft | 22 kts | 225° |
| 2026-05-06 12:22 | 37.80799 | -1.12158 | 657 ft | 22 kts | 226° |
| 2026-05-06 12:22 | 37.80692 | -1.12294 | 657 ft | 22 kts | 226° |
| 2026-05-06 12:22 | 37.80586 | -1.12430 | 657 ft | 22 kts | 225° |
| 2026-05-06 12:23 | 37.80479 | -1.12566 | 657 ft | 22 kts | 226° |
| 2026-05-06 12:23 | 37.80373 | -1.12703 | 657 ft | 22 kts | 225° |
| 2026-05-06 12:23 | 37.80267 | -1.12839 | 657 ft | 22 kts | 225° |
| 2026-05-06 12:23 | 37.80170 | -1.12963 | 657 ft | 16 kts | 225° |
| 2026-05-06 12:24 | 37.80118 | -1.13047 | 657 ft | 10 kts | 256° |
| 2026-05-06 12:24 | 37.80145 | -1.13122 | 657 ft | 8 kts | 315° |
| 2026-05-06 12:24 | 37.80169 | -1.13169 | 657 ft | 5 kts | 283° |
| 2026-05-06 12:24 | 37.80181 | -1.13216 | 657 ft | 6 kts | 295° |
| 2026-05-06 12:25 | 37.80207 | -1.13252 | 657 ft | 6 kts | 319° |
| 2026-05-06 12:25 | 37.80220 | -1.13268 | 657 ft | 0 kts | 317° |